Time;durP1;ratioP1;P1;durP2;ratioP2;P2;SDS_P1;SDS_P2;PMS_P1;PMS_P2;Temp;Humidity;BMP_temperature;BMP_pressure;BME280_temperature;BME280_humidity;BME280_pressure;Samples;Min_cycle;Max_cycle;Signal;HPM_P1;HPM_P2
2022/11/13 00:01:45;;;;;;;3.97;2.60;;;;;;;;;;5012473;28;20079;-73
2022/11/13 00:04:11;;;;;;;4.82;2.60;;;;;;;;;;5029848;28;20392;-73
2022/11/13 00:06:36;;;;;;;4.93;2.65;;;;;;;;;;5032849;28;20033;-73
2022/11/13 00:09:02;;;;;;;6.38;2.90;;;;;;;;;;5033964;28;20048;-73
2022/11/13 00:11:27;;;;;;;5.05;2.40;;;;;;;;;;5034008;28;20421;-73
2022/11/13 00:13:53;;;;;;;3.92;2.30;;;;;;;;;;5033580;28;20083;-73
2022/11/13 00:16:19;;;;;;;4.70;2.65;;;;;;;;;;5033342;28;20034;-73
2022/11/13 00:18:46;;;;;;;5.57;2.85;;;;;;;;;;5033687;28;20045;-72
2022/11/13 00:21:18;;;;;;;5.13;2.80;;;;;;;;;;5033700;28;20033;-73
2022/11/13 00:23:44;;;;;;;4.38;2.70;;;;;;;;;;5033632;28;20055;-72
2022/11/13 00:26:12;;;;;;;9.25;3.45;;;;;;;;;;5033313;28;20033;-73
2022/11/13 00:28:38;;;;;;;5.18;2.95;;;;;;;;;;5033555;28;20037;-72
2022/11/13 00:31:05;;;;;;;5.43;2.75;;;;;;;;;;5033254;28;20037;-72
2022/11/13 00:33:30;;;;;;;5.43;2.60;;;;;;;;;;5033616;28;20036;-72
2022/11/13 00:36:07;;;;;;;3.55;2.30;;;;;;;;;;5033066;28;20108;-72
2022/11/13 00:38:33;;;;;;;5.18;2.55;;;;;;;;;;5033580;28;20037;-72
2022/11/13 00:41:00;;;;;;;7.05;2.70;;;;;;;;;;5033332;28;20041;-72
2022/11/13 00:43:26;;;;;;;3.80;2.38;;;;;;;;;;5033299;28;20025;-72
2022/11/13 00:45:51;;;;;;;4.13;2.40;;;;;;;;;;5032975;28;20033;-72
2022/11/13 00:48:17;;;;;;;5.78;2.17;;;;;;;;;;5033414;28;20091;-72
2022/11/13 00:50:43;;;;;;;4.28;1.98;;;;;;;;;;5032995;28;20029;-73
2022/11/13 00:53:08;;;;;;;3.22;2.03;;;;;;;;;;5015330;28;20524;-71
2022/11/13 00:55:33;;;;;;;3.72;2.15;;;;;;;;;;5014885;28;20033;-72
2022/11/13 00:57:59;;;;;;;4.30;2.53;;;;;;;;;;5033067;28;20458;-72
2022/11/13 01:00:24;;;;;;;4.93;2.00;;;;;;;;;;5032923;28;20048;-72
2022/11/13 01:02:50;;;;;;;3.45;1.90;;;;;;;;;;5033094;28;20025;-72
2022/11/13 01:05:15;;;;;;;4.00;2.00;;;;;;;;;;5032577;28;20057;-73
2022/11/13 01:07:41;;;;;;;4.32;2.13;;;;;;;;;;5032818;28;20037;-73
2022/11/13 01:10:07;;;;;;;2.65;1.80;;;;;;;;;;5032551;28;20021;-73
2022/11/13 01:12:32;;;;;;;3.63;1.80;;;;;;;;;;5032631;28;20037;-72
2022/11/13 01:14:58;;;;;;;3.60;1.90;;;;;;;;;;5032630;28;20048;-74
2022/11/13 01:17:24;;;;;;;4.63;2.17;;;;;;;;;;5032052;28;20025;-73
2022/11/13 01:19:49;;;;;;;4.13;2.00;;;;;;;;;;5032352;28;20037;-74
2022/11/13 01:22:14;;;;;;;4.32;1.88;;;;;;;;;;5032744;28;20037;-73
2022/11/13 01:24:40;;;;;;;5.47;2.13;;;;;;;;;;5032442;28;20029;-73
2022/11/13 01:27:05;;;;;;;4.38;2.03;;;;;;;;;;5031988;28;20061;-73
2022/11/13 01:29:31;;;;;;;3.35;1.80;;;;;;;;;;5032410;28;20037;-73
2022/11/13 01:31:56;;;;;;;4.10;2.13;;;;;;;;;;5032286;28;20642;-74
2022/11/13 01:34:21;;;;;;;3.63;1.83;;;;;;;;;;5032412;28;20033;-74
2022/11/13 01:36:47;;;;;;;3.75;1.88;;;;;;;;;;5014252;28;20033;-73
2022/11/13 01:39:12;;;;;;;4.30;1.92;;;;;;;;;;5032511;28;20109;-73
2022/11/13 01:41:38;;;;;;;3.45;2.05;;;;;;;;;;5031992;28;20032;-74
2022/11/13 01:44:09;;;;;;;4.30;2.20;;;;;;;;;;5032223;28;20087;-72
2022/11/13 01:46:44;;;;;;;3.30;2.00;;;;;;;;;;5031677;28;20036;-72
2022/11/13 01:49:09;;;;;;;3.67;2.20;;;;;;;;;;5032067;28;20034;-73
2022/11/13 01:51:44;;;;;;;5.60;2.40;;;;;;;;;;5031762;28;20044;-74
2022/11/13 01:54:15;;;;;;;4.40;2.42;;;;;;;;;;5032155;28;20095;-73
2022/11/13 01:56:40;;;;;;;5.20;2.33;;;;;;;;;;5031288;28;20025;-72
2022/11/13 01:59:15;;;;;;;4.72;2.40;;;;;;;;;;5032084;28;20029;-73
2022/11/13 02:01:41;;;;;;;3.60;2.35;;;;;;;;;;5031618;28;20025;-73
2022/11/13 02:04:06;;;;;;;4.28;2.08;;;;;;;;;;5013870;28;20040;-73
2022/11/13 02:06:52;;;;;;;4.97;2.10;;;;;;;;;;5031282;28;20400;-72
2022/11/13 02:09:21;;;;;;;4.18;2.25;;;;;;;;;;5031696;28;20049;-72
2022/11/13 02:11:47;;;;;;;4.45;2.15;;;;;;;;;;5031435;28;20029;-71
2022/11/13 02:14:13;;;;;;;4.55;2.30;;;;;;;;;;5031732;28;20021;-72
2022/11/13 02:16:41;;;;;;;4.50;2.28;;;;;;;;;;5031740;28;20026;-72
2022/11/13 02:19:16;;;;;;;4.13;2.25;;;;;;;;;;5013898;28;20037;-72
2022/11/13 02:21:54;;;;;;;5.75;2.30;;;;;;;;;;5031269;28;20029;-72
2022/11/13 02:24:32;;;;;;;5.50;2.30;;;;;;;;;;5031387;28;20037;-73
2022/11/13 02:27:03;;;;;;;4.75;2.13;;;;;;;;;;5030775;28;20029;-70
2022/11/13 02:29:29;;;;;;;3.97;2.30;;;;;;;;;;5030514;28;20492;-72
2022/11/13 02:31:54;;;;;;;3.95;2.20;;;;;;;;;;5031055;28;20104;-72
2022/11/13 02:34:20;;;;;;;3.55;2.10;;;;;;;;;;5031276;28;20047;-73
2022/11/13 02:36:45;;;;;;;3.83;2.20;;;;;;;;;;5030899;28;20525;-72
2022/11/13 02:39:12;;;;;;;3.92;2.40;;;;;;;;;;5031120;28;20490;-72
2022/11/13 02:41:37;;;;;;;4.75;2.10;;;;;;;;;;5030766;28;20034;-73
2022/11/13 02:44:04;;;;;;;6.13;2.30;;;;;;;;;;5030634;28;20175;-72
2022/11/13 02:46:30;;;;;;;3.35;1.90;;;;;;;;;;5030485;28;20021;-73
2022/11/13 02:48:55;;;;;;;4.78;2.20;;;;;;;;;;5031117;28;20029;-73
2022/11/13 02:51:21;;;;;;;4.70;2.20;;;;;;;;;;5030778;28;20032;-72
2022/11/13 02:53:46;;;;;;;3.60;1.95;;;;;;;;;;5030913;28;20473;-72
2022/11/13 02:56:11;;;;;;;4.15;2.08;;;;;;;;;;5030631;28;20064;-72
2022/11/13 02:58:37;;;;;;;3.33;2.17;;;;;;;;;;5030868;28;20029;-73
2022/11/13 03:01:03;;;;;;;3.90;2.10;;;;;;;;;;5030738;28;20108;-73
2022/11/13 03:03:29;;;;;;;3.55;2.10;;;;;;;;;;5030795;28;20179;-72
2022/11/13 03:05:54;;;;;;;3.75;2.17;;;;;;;;;;5030530;28;20061;-72
2022/11/13 03:08:20;;;;;;;3.38;2.20;;;;;;;;;;5030333;28;20022;-72
2022/11/13 03:10:46;;;;;;;4.68;2.30;;;;;;;;;;5030739;28;20111;-72
2022/11/13 03:13:11;;;;;;;4.40;2.05;;;;;;;;;;5030414;28;20056;-71
2022/11/13 03:15:37;;;;;;;4.95;2.20;;;;;;;;;;5030736;28;20097;-71
2022/11/13 03:18:06;;;;;;;3.53;2.10;;;;;;;;;;5030054;28;20104;-71
2022/11/13 03:20:34;;;;;;;4.77;2.60;;;;;;;;;;5030374;28;20026;-72
2022/11/13 03:23:00;;;;;;;4.88;2.47;;;;;;;;;;5030168;28;20018;-71
2022/11/13 03:25:25;;;;;;;4.63;2.38;;;;;;;;;;5030265;28;20252;-71
2022/11/13 03:27:51;;;;;;;5.32;2.38;;;;;;;;;;5030027;28;20025;-72
2022/11/13 03:30:16;;;;;;;6.53;2.38;;;;;;;;;;5030483;28;20044;-71
2022/11/13 03:32:42;;;;;;;5.68;2.60;;;;;;;;;;5012243;28;20464;-72
2022/11/13 03:35:07;;;;;;;6.25;2.45;;;;;;;;;;5030359;28;20033;-72
2022/11/13 03:37:33;;;;;;;3.90;2.42;;;;;;;;;;5029942;28;20026;-72
2022/11/13 03:39:58;;;;;;;4.63;2.20;;;;;;;;;;5030028;28;20072;-73
2022/11/13 03:42:24;;;;;;;4.32;2.38;;;;;;;;;;5029978;28;20033;-73
2022/11/13 03:44:49;;;;;;;6.47;2.70;;;;;;;;;;5030101;28;20048;-73
2022/11/13 03:47:15;;;;;;;5.68;2.70;;;;;;;;;;5029803;28;20022;-72
2022/11/13 03:49:40;;;;;;;6.65;2.42;;;;;;;;;;5030175;28;20095;-72
2022/11/13 03:52:05;;;;;;;5.00;2.67;;;;;;;;;;5029857;28;20493;-73
2022/11/13 03:54:31;;;;;;;5.05;2.60;;;;;;;;;;5012436;28;20053;-73
2022/11/13 03:56:56;;;;;;;4.82;2.40;;;;;;;;;;5029519;28;20029;-73
2022/11/13 03:59:22;;;;;;;3.80;2.30;;;;;;;;;;5030112;28;20057;-73
2022/11/13 04:01:47;;;;;;;3.70;2.42;;;;;;;;;;5029850;28;20022;-73
2022/11/13 04:04:12;;;;;;;4.97;2.80;;;;;;;;;;5028397;28;20025;-72
2022/11/13 04:06:38;;;;;;;4.65;2.40;;;;;;;;;;5012007;28;20481;-73
2022/11/13 04:09:03;;;;;;;5.75;2.67;;;;;;;;;;5029889;28;20025;-74
2022/11/13 04:11:29;;;;;;;4.70;2.20;;;;;;;;;;5029946;28;20076;-73
2022/11/13 04:13:54;;;;;;;4.68;2.28;;;;;;;;;;5029606;28;20025;-73
2022/11/13 04:16:19;;;;;;;4.68;2.42;;;;;;;;;;5029895;28;20017;-73
2022/11/13 04:18:45;;;;;;;3.97;2.45;;;;;;;;;;5028901;28;20030;-72
2022/11/13 04:21:10;;;;;;;3.50;2.30;;;;;;;;;;5029764;28;20018;-72
2022/11/13 04:23:36;;;;;;;4.47;2.70;;;;;;;;;;5029619;28;20033;-72
2022/11/13 04:26:01;;;;;;;3.97;2.53;;;;;;;;;;5029810;28;20026;-74
2022/11/13 04:28:27;;;;;;;4.75;2.20;;;;;;;;;;5029356;28;20022;-74
2022/11/13 04:30:53;;;;;;;6.10;2.67;;;;;;;;;;5029739;28;20026;-73
2022/11/13 04:33:20;;;;;;;3.90;2.35;;;;;;;;;;5029465;28;20021;-74
2022/11/13 04:35:45;;;;;;;6.20;2.65;;;;;;;;;;5029697;28;20025;-73
2022/11/13 04:38:11;;;;;;;3.95;2.42;;;;;;;;;;5029356;28;20018;-73
2022/11/13 04:40:37;;;;;;;4.70;2.50;;;;;;;;;;5029784;28;20025;-72
2022/11/13 04:43:03;;;;;;;5.30;2.42;;;;;;;;;;5029310;28;20018;-73
2022/11/13 04:45:28;;;;;;;5.78;2.72;;;;;;;;;;5029626;28;20124;-73
2022/11/13 04:47:54;;;;;;;4.82;2.67;;;;;;;;;;5029350;28;20017;-73
2022/11/13 04:50:19;;;;;;;4.80;2.45;;;;;;;;;;5029556;28;20087;-73
2022/11/13 04:52:45;;;;;;;6.00;2.90;;;;;;;;;;5032252;28;20029;-73
2022/11/13 04:55:11;;;;;;;3.75;2.22;;;;;;;;;;5033077;28;20061;-73
2022/11/13 04:57:36;;;;;;;4.28;2.50;;;;;;;;;;5032529;28;20068;-73
2022/11/13 05:00:04;;;;;;;3.72;2.42;;;;;;;;;;5033366;28;20485;-72
2022/11/13 05:02:29;;;;;;;4.38;2.40;;;;;;;;;;5032899;28;20036;-73
2022/11/13 05:04:55;;;;;;;6.03;2.50;;;;;;;;;;5032764;28;20053;-72
2022/11/13 05:07:20;;;;;;;4.40;2.40;;;;;;;;;;5032779;28;20432;-72
2022/11/13 05:09:46;;;;;;;5.03;2.50;;;;;;;;;;5032657;28;20121;-73
2022/11/13 05:12:11;;;;;;;5.32;2.30;;;;;;;;;;5032651;28;20113;-73
2022/11/13 05:14:38;;;;;;;5.25;2.55;;;;;;;;;;5032632;28;20540;-71
2022/11/13 05:17:04;;;;;;;3.00;2.13;;;;;;;;;;5032708;28;20550;-72
2022/11/13 05:19:32;;;;;;;4.35;2.35;;;;;;;;;;5032422;28;20033;-72
2022/11/13 05:21:58;;;;;;;4.00;2.08;;;;;;;;;;5032545;28;20040;-72
2022/11/13 05:24:23;;;;;;;4.28;2.30;;;;;;;;;;5032645;28;20030;-73
2022/11/13 05:26:49;;;;;;;3.90;2.20;;;;;;;;;;5032647;28;20037;-73
2022/11/13 05:29:14;;;;;;;4.63;2.28;;;;;;;;;;5032037;28;20030;-73
2022/11/13 05:31:40;;;;;;;4.22;2.20;;;;;;;;;;5032463;28;20045;-73
2022/11/13 05:34:05;;;;;;;6.15;2.40;;;;;;;;;;5014379;28;20025;-73
2022/11/13 05:36:31;;;;;;;4.38;2.17;;;;;;;;;;5032527;28;20035;-73
2022/11/13 05:38:56;;;;;;;5.50;2.53;;;;;;;;;;5032124;28;20025;-73
2022/11/13 05:41:22;;;;;;;3.53;2.42;;;;;;;;;;5032406;28;20025;-73
2022/11/13 05:43:48;;;;;;;5.50;2.83;;;;;;;;;;5032030;28;20022;-74
2022/11/13 05:46:15;;;;;;;6.20;2.60;;;;;;;;;;5032030;28;20021;-73
2022/11/13 05:48:41;;;;;;;4.45;2.47;;;;;;;;;;5031568;28;20022;-74
2022/11/13 05:51:16;;;;;;;6.55;2.88;;;;;;;;;;5032139;28;20496;-73
2022/11/13 05:53:42;;;;;;;4.85;2.60;;;;;;;;;;5014007;28;20057;-73
2022/11/13 05:56:14;;;;;;;4.38;2.53;;;;;;;;;;5032086;28;20088;-73
2022/11/13 05:58:42;;;;;;;4.97;2.58;;;;;;;;;;5013638;28;20057;-72
2022/11/13 06:01:11;;;;;;;7.18;2.90;;;;;;;;;;5032016;28;20033;-72
2022/11/13 06:03:37;;;;;;;5.05;2.60;;;;;;;;;;5030449;28;20087;-73
2022/11/13 06:06:04;;;;;;;4.65;2.72;;;;;;;;;;5031563;28;20049;-73
2022/11/13 06:08:29;;;;;;;6.20;2.90;;;;;;;;;;5031312;28;20113;-74
2022/11/13 06:10:59;;;;;;;5.60;2.63;;;;;;;;;;5031720;28;20109;-72
2022/11/13 06:13:25;;;;;;;4.60;2.83;;;;;;;;;;5031381;28;20021;-72
2022/11/13 06:15:50;;;;;;;5.05;2.97;;;;;;;;;;5013919;28;20357;-72
2022/11/13 06:18:21;;;;;;;5.90;2.95;;;;;;;;;;5031328;28;20100;-72
2022/11/13 06:20:46;;;;;;;4.32;2.80;;;;;;;;;;5031768;28;20052;-72
2022/11/13 06:23:11;;;;;;;5.22;2.50;;;;;;;;;;5031343;28;20053;-72
2022/11/13 06:25:37;;;;;;;4.82;2.90;;;;;;;;;;5031180;28;20029;-72
2022/11/13 06:28:02;;;;;;;5.28;2.78;;;;;;;;;;5030989;28;20105;-72
2022/11/13 06:30:28;;;;;;;4.90;2.78;;;;;;;;;;5013343;28;20021;-73
2022/11/13 06:32:53;;;;;;;5.57;3.25;;;;;;;;;;5031616;28;20137;-72
2022/11/13 06:35:19;;;;;;;4.47;2.72;;;;;;;;;;5030983;28;20033;-72
2022/11/13 06:37:44;;;;;;;4.35;2.75;;;;;;;;;;5031170;28;20029;-72
2022/11/13 06:40:10;;;;;;;4.70;2.65;;;;;;;;;;5031000;28;20036;-73
2022/11/13 06:42:36;;;;;;;5.20;2.72;;;;;;;;;;5030845;28;20025;-73
2022/11/13 06:45:01;;;;;;;8.93;3.20;;;;;;;;;;5030624;28;20029;-72
2022/11/13 06:47:27;;;;;;;4.03;2.75;;;;;;;;;;5031014;28;20021;-72
2022/11/13 06:49:52;;;;;;;5.93;2.85;;;;;;;;;;5030536;28;20057;-73
2022/11/13 06:52:18;;;;;;;4.68;2.78;;;;;;;;;;5031070;28;20057;-73
2022/11/13 06:54:43;;;;;;;4.40;2.88;;;;;;;;;;5030658;28;20029;-74
2022/11/13 06:57:09;;;;;;;5.97;3.20;;;;;;;;;;5030797;28;20114;-73
2022/11/13 06:59:34;;;;;;;5.10;3.08;;;;;;;;;;5030249;28;20597;-72
2022/11/13 07:01:59;;;;;;;4.35;2.50;;;;;;;;;;5030735;28;20026;-72
2022/11/13 07:04:25;;;;;;;4.13;2.63;;;;;;;;;;5012672;28;20163;-73
2022/11/13 07:06:50;;;;;;;4.95;2.70;;;;;;;;;;5030661;28;20104;-72
2022/11/13 07:09:15;;;;;;;4.35;2.53;;;;;;;;;;5030327;28;20029;-73
2022/11/13 07:11:41;;;;;;;6.20;3.00;;;;;;;;;;5030599;28;20461;-73
2022/11/13 07:14:10;;;;;;;7.65;4.28;;;;;;;;;;5029680;28;20037;-73
2022/11/13 07:16:35;;;;;;;13.60;8.18;;;;;;;;;;5030613;28;20036;-73
2022/11/13 07:19:00;;;;;;;9.75;5.25;;;;;;;;;;5029854;28;20524;-73
2022/11/13 07:21:26;;;;;;;6.22;3.53;;;;;;;;;;5030658;28;20071;-73
2022/11/13 07:23:51;;;;;;;7.60;3.00;;;;;;;;;;5012657;28;20153;-73
2022/11/13 07:26:17;;;;;;;7.20;3.38;;;;;;;;;;5030323;28;20033;-73
2022/11/13 07:28:43;;;;;;;6.18;3.33;;;;;;;;;;5030065;28;20400;-73
2022/11/13 07:31:11;;;;;;;7.15;4.35;;;;;;;;;;5030192;28;20465;-73
2022/11/13 07:33:36;;;;;;;5.75;3.78;;;;;;;;;;5030145;28;20040;-73
2022/11/13 07:36:01;;;;;;;6.40;4.10;;;;;;;;;;5029981;28;20037;-72
2022/11/13 07:38:27;;;;;;;9.95;4.30;;;;;;;;;;5030090;28;20025;-73
2022/11/13 07:40:53;;;;;;;6.82;3.90;;;;;;;;;;5029858;28;20066;-72
2022/11/13 07:43:18;;;;;;;8.23;4.68;;;;;;;;;;5029957;28;20034;-73
2022/11/13 07:45:44;;;;;;;6.45;3.78;;;;;;;;;;5029791;28;20034;-72
2022/11/13 07:48:09;;;;;;;6.53;4.00;;;;;;;;;;5029960;28;20033;-73
2022/11/13 07:50:37;;;;;;;6.03;3.60;;;;;;;;;;5029864;28;20110;-73
2022/11/13 07:53:04;;;;;;;6.65;4.43;;;;;;;;;;5029973;28;20022;-72
2022/11/13 07:55:31;;;;;;;7.70;4.47;;;;;;;;;;5011996;28;20175;-72
2022/11/13 07:57:58;;;;;;;8.55;5.65;;;;;;;;;;5029596;28;20021;-72
2022/11/13 08:00:25;;;;;;;9.73;6.30;;;;;;;;;;5029749;28;20018;-73
2022/11/13 08:02:50;;;;;;;8.02;5.45;;;;;;;;;;5030094;28;20625;-72
2022/11/13 08:05:16;;;;;;;7.57;5.38;;;;;;;;;;5029622;28;20651;-72
2022/11/13 08:07:41;;;;;;;7.28;5.25;;;;;;;;;;5030001;28;20022;-72
2022/11/13 08:10:08;;;;;;;9.68;4.72;;;;;;;;;;5011942;28;20017;-72
2022/11/13 08:12:33;;;;;;;7.18;5.05;;;;;;;;;;5029764;28;20401;-72
2022/11/13 08:14:59;;;;;;;9.43;5.15;;;;;;;;;;5011910;28;20504;-73
2022/11/13 08:17:24;;;;;;;7.25;4.95;;;;;;;;;;5029743;28;20018;-72
2022/11/13 08:19:50;;;;;;;8.60;5.03;;;;;;;;;;5011711;28;20028;-72
2022/11/13 08:22:15;;;;;;;7.20;5.18;;;;;;;;;;5029868;28;20010;-73
2022/11/13 08:24:40;;;;;;;6.82;5.00;;;;;;;;;;5029605;28;20030;-72
2022/11/13 08:27:06;;;;;;;7.10;4.40;;;;;;;;;;5031698;28;20022;-73
2022/11/13 08:29:32;;;;;;;5.65;4.03;;;;;;;;;;5033334;28;20373;-72
2022/11/13 08:31:58;;;;;;;8.77;4.30;;;;;;;;;;5015736;28;20033;-73
2022/11/13 08:34:23;;;;;;;6.18;3.88;;;;;;;;;;5033338;28;20160;-73
2022/11/13 08:36:48;;;;;;;7.18;4.20;;;;;;;;;;5033261;28;20114;-73
2022/11/13 08:39:14;;;;;;;8.65;4.00;;;;;;;;;;5033389;28;20029;-73
2022/11/13 08:41:39;;;;;;;5.85;3.53;;;;;;;;;;5033182;28;20028;-73
2022/11/13 08:44:05;;;;;;;4.40;2.75;;;;;;;;;;5033219;28;20031;-74
2022/11/13 08:46:30;;;;;;;4.32;2.95;;;;;;;;;;5032987;28;20108;-73
2022/11/13 08:48:55;;;;;;;4.35;2.80;;;;;;;;;;5033104;28;20108;-73
2022/11/13 08:51:21;;;;;;;4.13;2.78;;;;;;;;;;5032903;28;20037;-74
2022/11/13 08:53:46;;;;;;;5.10;2.65;;;;;;;;;;5033103;28;20025;-74
2022/11/13 08:56:12;;;;;;;3.97;2.60;;;;;;;;;;5015001;28;20017;-74
2022/11/13 08:58:37;;;;;;;5.03;2.60;;;;;;;;;;5032731;28;20021;-74
2022/11/13 09:01:03;;;;;;;6.22;3.00;;;;;;;;;;5032970;28;20021;-73
2022/11/13 09:03:29;;;;;;;4.45;2.90;;;;;;;;;;5033046;28;20025;-74
2022/11/13 09:05:54;;;;;;;4.88;3.05;;;;;;;;;;5032517;28;20045;-73
2022/11/13 09:08:20;;;;;;;6.30;2.90;;;;;;;;;;5032822;28;20021;-73
2022/11/13 09:10:46;;;;;;;6.38;3.17;;;;;;;;;;5032429;28;20028;-73
2022/11/13 09:13:11;;;;;;;5.93;3.00;;;;;;;;;;5032745;28;20184;-72
2022/11/13 09:15:38;;;;;;;4.63;2.70;;;;;;;;;;5032632;28;20617;-72
2022/11/13 09:18:04;;;;;;;5.20;2.58;;;;;;;;;;5032716;28;20571;-72
2022/11/13 09:20:32;;;;;;;4.60;2.60;;;;;;;;;;5032311;28;20029;-71
2022/11/13 09:23:03;;;;;;;4.90;2.85;;;;;;;;;;5032630;28;20155;-72
2022/11/13 09:25:30;;;;;;;5.45;2.70;;;;;;;;;;5032382;28;20063;-72
2022/11/13 09:27:58;;;;;;;4.20;2.35;;;;;;;;;;5014619;28;20029;-72
2022/11/13 09:30:24;;;;;;;4.28;2.53;;;;;;;;;;5032102;28;20026;-72
2022/11/13 09:32:58;;;;;;;4.45;2.67;;;;;;;;;;5032499;28;20029;-72
2022/11/13 09:35:33;;;;;;;4.65;2.58;;;;;;;;;;5032347;28;20032;-74
2022/11/13 09:38:12;;;;;;;5.85;2.90;;;;;;;;;;5031972;28;20088;-73
2022/11/13 09:40:44;;;;;;;7.45;2.70;;;;;;;;;;5031978;28;20041;-73
2022/11/13 09:43:26;;;;;;;4.68;2.55;;;;;;;;;;5014240;28;20374;-73
2022/11/13 09:45:59;;;;;;;5.28;3.00;;;;;;;;;;5031891;28;20082;-73
2022/11/13 09:48:32;;;;;;;6.20;2.83;;;;;;;;;;5031936;28;20029;-73
2022/11/13 09:51:03;;;;;;;5.28;2.78;;;;;;;;;;5013894;28;20112;-73
2022/11/13 09:53:33;;;;;;;4.07;2.42;;;;;;;;;;5032027;28;20040;-73
2022/11/13 09:56:06;;;;;;;4.05;2.38;;;;;;;;;;5031834;28;20040;-73
2022/11/13 09:58:50;;;;;;;5.10;2.80;;;;;;;;;;5031720;28;20025;-73
2022/11/13 10:01:27;;;;;;;6.30;2.72;;;;;;;;;;5031912;28;20022;-73
2022/11/13 10:03:59;;;;;;;5.13;2.53;;;;;;;;;;5031827;28;20029;-73
2022/11/13 10:06:42;;;;;;;4.38;2.47;;;;;;;;;;5031317;28;20057;-73
2022/11/13 10:09:23;;;;;;;4.50;2.47;;;;;;;;;;5031538;28;20111;-73
2022/11/13 10:12:01;;;;;;;4.80;2.58;;;;;;;;;;5031516;28;20108;-72
2022/11/13 10:14:35;;;;;;;4.53;2.72;;;;;;;;;;5031776;28;20076;-73
2022/11/13 10:17:07;;;;;;;5.15;2.83;;;;;;;;;;5031592;28;20028;-73
2022/11/13 10:19:40;;;;;;;5.15;2.95;;;;;;;;;;5031369;28;20433;-73
2022/11/13 10:22:11;;;;;;;6.15;2.85;;;;;;;;;;5031229;28;20029;-72
2022/11/13 10:24:44;;;;;;;6.20;3.20;;;;;;;;;;5031404;28;20026;-72
2022/11/13 10:27:13;;;;;;;4.82;3.03;;;;;;;;;;5013226;28;20355;-72
2022/11/13 10:29:39;;;;;;;4.38;2.80;;;;;;;;;;5031349;28;20029;-72
2022/11/13 10:32:20;;;;;;;4.70;2.40;;;;;;;;;;5031183;28;20466;-73
2022/11/13 10:34:52;;;;;;;4.53;2.80;;;;;;;;;;5013569;28;20025;-72
2022/11/13 10:37:32;;;;;;;5.07;2.53;;;;;;;;;;5031208;28;20037;-72
2022/11/13 10:39:58;;;;;;;;;;;;;;;;;;5031575;28;20064;-72
2022/11/13 10:42:38;;;;;;;4.90;2.10;;;;;;;;;;5030644;28;19948;-72
2022/11/13 10:45:03;;;;;;;4.45;1.98;;;;;;;;;;5030833;28;20338;-71
2022/11/13 10:47:32;;;;;;;3.20;1.98;;;;;;;;;;5030596;28;20026;-72
2022/11/13 10:50:21;;;;;;;4.28;2.00;;;;;;;;;;5030215;28;20056;-73
2022/11/13 10:52:49;;;;;;;3.10;2.00;;;;;;;;;;5030726;28;20378;-72
2022/11/13 10:55:23;;;;;;;5.78;2.55;;;;;;;;;;5031123;28;20026;-72
2022/11/13 10:57:57;;;;;;;5.78;2.78;;;;;;;;;;5030411;28;20505;-72
2022/11/13 11:00:30;;;;;;;6.45;3.25;;;;;;;;;;5030543;28;20041;-73
2022/11/13 11:02:56;;;;;;;5.38;3.00;;;;;;;;;;5030491;28;20033;-73
2022/11/13 11:05:23;;;;;;;5.30;2.97;;;;;;;;;;5030415;28;20049;-73
2022/11/13 11:07:49;;;;;;;6.25;2.80;;;;;;;;;;5030487;28;20087;-72
2022/11/13 11:12:14;;;;;;;4.95;2.63;;;;;;;;;;5030563;28;20104;-73
2022/11/13 11:13:31;;;;;;;6.10;2.63;;;;;;;;;;5010514;28;20041;-73
2022/11/13 11:16:00;;;;;;;3.10;1.90;;;;;;;;;;5030535;28;20026;-73
2022/11/13 11:18:25;;;;;;;3.90;1.92;;;;;;;;;;5030336;28;20100;-73
2022/11/13 11:20:57;;;;;;;2.67;1.50;;;;;;;;;;5030246;28;20034;-74
2022/11/13 11:23:35;;;;;;;3.75;1.70;;;;;;;;;;5030397;28;20021;-72
2022/11/13 11:26:04;;;;;;;3.95;1.50;;;;;;;;;;5030553;28;20064;-73
2022/11/13 11:28:33;;;;;;;3.35;1.70;;;;;;;;;;5030037;28;20033;-73
2022/11/13 11:31:09;;;;;;;3.60;1.50;;;;;;;;;;5030316;28;20025;-73
2022/11/13 11:33:47;;;;;;;4.07;1.55;;;;;;;;;;5012482;28;20060;-73
2022/11/13 11:36:33;;;;;;;3.75;1.75;;;;;;;;;;5030020;28;20021;-73
2022/11/13 11:39:27;;;;;;;3.90;1.80;;;;;;;;;;5012395;28;20034;-73
2022/11/13 11:42:05;;;;;;;3.55;1.60;;;;;;;;;;5022053;28;20105;-73
2022/11/13 11:44:38;;;;;;;3.38;1.58;;;;;;;;;;5012410;28;20464;-73
2022/11/13 11:47:10;;;;;;;4.20;1.50;;;;;;;;;;5029915;28;20030;-73
2022/11/13 11:49:35;;;;;;;5.68;1.92;;;;;;;;;;5029959;28;20036;-73
2022/11/13 11:52:22;;;;;;;3.97;1.67;;;;;;;;;;5029847;28;20456;-74
2022/11/13 11:55:20;;;;;;;5.15;1.55;;;;;;;;;;5012069;28;20509;-73
2022/11/13 11:57:55;;;;;;;4.93;1.60;;;;;;;;;;5022025;28;20041;-73
2022/11/13 12:00:21;;;;;;;3.78;1.40;;;;;;;;;;5030718;28;20037;-72
2022/11/13 12:03:20;;;;;;;4.07;1.52;;;;;;;;;;5033970;28;20047;-72
2022/11/13 12:05:59;;;;;;;3.90;1.58;;;;;;;;;;5033892;28;20120;-73
2022/11/13 12:08:31;;;;;;;3.78;1.88;;;;;;;;;;5033913;28;20026;-72
2022/11/13 12:11:16;;;;;;;4.15;2.15;;;;;;;;;;5033751;28;20574;-72
2022/11/13 12:14:00;;;;;;;2.90;1.50;;;;;;;;;;5033598;28;20036;-72
2022/11/13 12:16:34;;;;;;;6.53;2.30;;;;;;;;;;5033915;28;20029;-72
2022/11/13 12:19:43;;;;;;;7.90;2.10;;;;;;;;;;5033671;28;20057;-73
2022/11/13 12:22:52;;;;;;;4.45;1.77;;;;;;;;;;5033556;28;20056;-73
2022/11/13 12:25:32;;;;;;;5.47;1.50;;;;;;;;;;5000598;28;20037;-72
2022/11/13 12:28:13;;;;;;;4.93;1.75;;;;;;;;;;5033432;28;20125;-72
2022/11/13 12:30:39;;;;;;;4.65;1.73;;;;;;;;;;5015589;28;20030;-73
2022/11/13 12:33:23;;;;;;;3.63;1.73;;;;;;;;;;5033294;28;20034;-72
2022/11/13 12:35:51;;;;;;;4.05;1.70;;;;;;;;;;5033556;28;20121;-73
2022/11/13 12:38:21;;;;;;;3.65;1.50;;;;;;;;;;5033291;28;20022;-73
2022/11/13 12:40:55;;;;;;;;;;;;;;;;;;5033850;28;20436;-73
2022/11/13 12:43:36;;;;;;;3.28;1.48;;;;;;;;;;5033069;28;19913;-72
2022/11/13 12:46:08;;;;;;;2.70;1.42;;;;;;;;;;5033323;28;20034;-73
2022/11/13 12:48:44;;;;;;;3.33;1.50;;;;;;;;;;5033050;28;20041;-73
2022/11/13 12:51:15;;;;;;;4.32;1.50;;;;;;;;;;5032993;28;20087;-73
2022/11/13 12:53:45;;;;;;;4.53;1.40;;;;;;;;;;5032852;28;20108;-72
2022/11/13 12:56:23;;;;;;;3.85;1.23;;;;;;;;;;5033081;28;20029;-73
2022/11/13 12:59:01;;;;;;;4.50;1.40;;;;;;;;;;5032827;28;20108;-73
2022/11/13 13:01:32;;;;;;;3.95;1.40;;;;;;;;;;5015078;28;20037;-73
2022/11/13 13:04:27;;;;;;;2.55;1.35;;;;;;;;;;5032854;28;20053;-72
2022/11/13 13:07:10;;;;;;;4.28;1.38;;;;;;;;;;5032890;28;20088;-74
2022/11/13 13:10:17;;;;;;;6.13;1.40;;;;;;;;;;5032593;28;20041;-74
2022/11/13 13:13:12;;;;;;;3.38;1.50;;;;;;;;;;5031866;28;20033;-74
2022/11/13 13:15:40;;;;;;;3.50;1.25;;;;;;;;;;4961534;28;20139;-74
2022/11/13 13:18:23;;;;;;;3.63;1.50;;;;;;;;;;5032681;28;20025;-73
2022/11/13 13:21:11;;;;;;;5.13;1.60;;;;;;;;;;5032365;28;20034;-72
2022/11/13 13:23:42;;;;;;;4.13;1.67;;;;;;;;;;5032457;28;20018;-74
2022/11/13 13:26:21;;;;;;;3.17;1.50;;;;;;;;;;5032677;28;20079;-74
2022/11/13 13:29:04;;;;;;;4.90;1.27;;;;;;;;;;5032043;28;20026;-74
2022/11/13 13:31:53;;;;;;;3.97;1.50;;;;;;;;;;5032296;28;20029;-74
2022/11/13 13:34:54;;;;;;;2.85;1.30;;;;;;;;;;5032540;28;20022;-73
2022/11/13 13:37:34;;;;;;;3.88;1.40;;;;;;;;;;5032525;28;20051;-73
2022/11/13 13:40:08;;;;;;;3.95;1.52;;;;;;;;;;5032161;28;20041;-73
2022/11/13 13:42:51;;;;;;;3.47;1.50;;;;;;;;;;5032156;28;20032;-73
2022/11/13 13:45:32;;;;;;;3.90;1.58;;;;;;;;;;5031909;28;20025;-72
2022/11/13 13:47:59;;;;;;;4.97;1.30;;;;;;;;;;5031983;28;20116;-73
2022/11/13 13:50:31;;;;;;;5.28;1.50;;;;;;;;;;5031906;28;20041;-73
2022/11/13 13:52:58;;;;;;;8.10;1.60;;;;;;;;;;5032218;28;20029;-73
2022/11/13 13:55:35;;;;;;;3.97;1.65;;;;;;;;;;5031885;28;20473;-73
2022/11/13 13:58:07;;;;;;;4.45;1.70;;;;;;;;;;5031774;28;20040;-73
2022/11/13 14:00:33;;;;;;;5.07;1.50;;;;;;;;;;5031600;28;20017;-73
2022/11/13 14:03:00;;;;;;;3.13;1.38;;;;;;;;;;5031835;28;20096;-73
2022/11/13 14:05:34;;;;;;;3.08;1.40;;;;;;;;;;5031417;28;20088;-73
2022/11/13 14:08:06;;;;;;;3.45;1.48;;;;;;;;;;5031897;28;20049;-73
2022/11/13 14:10:34;;;;;;;4.07;1.50;;;;;;;;;;5031416;28;20678;-73
2022/11/13 14:13:01;;;;;;;5.25;1.70;;;;;;;;;;5031649;28;20041;-73
2022/11/13 14:15:30;;;;;;;3.17;1.40;;;;;;;;;;5031512;28;20457;-73
2022/11/13 14:18:12;;;;;;;6.00;1.60;;;;;;;;;;5031730;28;20021;-73
2022/11/13 14:20:47;;;;;;;2.45;1.48;;;;;;;;;;5031038;28;20867;-72
2022/11/13 14:23:19;;;;;;;5.10;1.70;;;;;;;;;;5031162;28;20028;-73
2022/11/13 14:25:45;;;;;;;3.63;1.50;;;;;;;;;;5030420;28;20029;-72
2022/11/13 14:28:23;;;;;;;5.07;1.70;;;;;;;;;;5031300;28;20033;-72
2022/11/13 14:30:59;;;;;;;3.63;1.58;;;;;;;;;;5031181;28;20029;-73
2022/11/13 14:33:39;;;;;;;4.90;1.80;;;;;;;;;;5031388;28;20030;-73
2022/11/13 14:36:05;;;;;;;6.73;2.03;;;;;;;;;;5031376;28;20029;-74
2022/11/13 14:38:34;;;;;;;3.33;1.67;;;;;;;;;;5031037;28;20105;-73
2022/11/13 14:41:01;;;;;;;4.38;1.63;;;;;;;;;;5030789;28;20031;-73
2022/11/13 14:43:29;;;;;;;4.30;1.70;;;;;;;;;;5031010;28;20022;-73
2022/11/13 14:46:04;;;;;;;4.55;1.80;;;;;;;;;;5030967;28;20029;-74
2022/11/13 14:48:33;;;;;;;5.22;1.85;;;;;;;;;;5030953;28;20069;-73
2022/11/13 14:51:01;;;;;;;3.05;1.60;;;;;;;;;;5013168;28;20056;-73
2022/11/13 14:53:32;;;;;;;4.20;1.50;;;;;;;;;;5031137;28;20036;-73
2022/11/13 14:56:09;;;;;;;2.40;1.45;;;;;;;;;;5030810;28;20053;-73
2022/11/13 14:58:38;;;;;;;4.28;1.60;;;;;;;;;;5012828;28;20029;-73